メインページ
METAR-TAF:

METAR-TAF

空港 :

Buffalo Narrows, マニトバ州, カナダ

緯度: 55-50N, 経度: 108-27W, 海抜: 434m

現時点の気象観測

当レポートは57分前の03:00(UTC)に作成
北/北西の風 4kt
気温 -27°C
湿度 75%
気圧 1017 hPa
視程: 14.5km
晴天

METAR: CYVT 130300Z AUTO 34004KT 9SM CLR M27/M30 A3002 RMK SLP224

時間: 21:57 (03:57 UTC)

予報

当レポートは3時間19分前の00:38(UTC)に作成
予報は13日の 01時(UTC)から 13日の 04時(UTC)まで有効
北/北東の風 6kt
視程: 10km
晴天
13日の 02時(UTC)から 13日の 04時(UTC)まで徐々に
北/北西の風 6kt

TAF: CYVT 130038Z 1301/1304 02006KT P6SM SKC BECMG 1302/1304 34006KT RMK FCST BASED ON AUTO OBS. NXT FCST WILL BE ISSUED AT 131345Z

4,000以上の空港の気象観測と天気予報(METAR報とTAF報)

利用可能な観測所は地図上に黄色い丸と赤い丸で示す。

丸の上にカーソルを重ねると観測所名を参照できる。

次にクリックすると気象観測と天気予報を参照できる。

マップの切り替え:黒色「×」印の緑ボタンをクリックして拡大、「-」印の緑ボタンをクリックして縮小、緑色の三角印をクリックして隣りの地図に切り替え


METAR-TAF: